sensor_id;sensor_type;location;lat;lon;timestamp;pressure;altitude;pressure_sealevel;temperature;humidity
8061;BME280;4073;42.626;25.386;2023-05-20T00:01:49;97445.66;;;14.95;100.00
8061;BME280;4073;42.626;25.386;2023-05-20T00:04:14;97436.91;;;15.03;100.00
8061;BME280;4073;42.626;25.386;2023-05-20T00:06:40;97438.34;;;15.14;100.00
8061;BME280;4073;42.626;25.386;2023-05-20T00:09:05;97444.00;;;15.31;100.00
8061;BME280;4073;42.626;25.386;2023-05-20T00:11:31;97428.50;;;15.41;100.00
8061;BME280;4073;42.626;25.386;2023-05-20T00:13:56;97433.91;;;15.55;100.00
8061;BME280;4073;42.626;25.386;2023-05-20T00:16:21;97426.94;;;15.68;100.00
8061;BME280;4073;42.626;25.386;2023-05-20T00:18:47;97422.28;;;15.73;100.00
8061;BME280;4073;42.626;25.386;2023-05-20T00:21:12;97431.75;;;15.84;100.00
8061;BME280;4073;42.626;25.386;2023-05-20T00:23:39;97413.97;;;15.83;100.00
8061;BME280;4073;42.626;25.386;2023-05-20T00:26:05;97425.47;;;16.02;100.00
8061;BME280;4073;42.626;25.386;2023-05-20T00:28:30;97428.56;;;16.23;100.00
8061;BME280;4073;42.626;25.386;2023-05-20T00:30:56;97438.13;;;16.29;100.00
8061;BME280;4073;42.626;25.386;2023-05-20T00:33:21;97438.13;;;16.29;100.00
8061;BME280;4073;42.626;25.386;2023-05-20T00:35:46;97432.66;;;16.34;100.00
8061;BME280;4073;42.626;25.386;2023-05-20T00:38:12;97436.75;;;16.31;100.00
8061;BME280;4073;42.626;25.386;2023-05-20T00:40:37;97439.75;;;16.30;100.00
8061;BME280;4073;42.626;25.386;2023-05-20T00:43:03;97447.94;;;16.25;100.00
8061;BME280;4073;42.626;25.386;2023-05-20T00:45:28;97439.94;;;16.33;100.00
8061;BME280;4073;42.626;25.386;2023-05-20T00:47:53;97441.13;;;16.41;100.00
8061;BME280;4073;42.626;25.386;2023-05-20T00:50:23;97440.44;;;16.35;100.00
8061;BME280;4073;42.626;25.386;2023-05-20T00:52:49;97431.66;;;16.30;100.00
8061;BME280;4073;42.626;25.386;2023-05-20T00:55:15;97409.28;;;16.29;100.00
8061;BME280;4073;42.626;25.386;2023-05-20T00:57:41;97422.66;;;16.34;100.00
8061;BME280;4073;42.626;25.386;2023-05-20T01:00:08;97412.19;;;16.33;100.00
8061;BME280;4073;42.626;25.386;2023-05-20T01:02:34;97417.38;;;16.29;100.00
8061;BME280;4073;42.626;25.386;2023-05-20T01:05:00;97415.06;;;16.36;100.00
8061;BME280;4073;42.626;25.386;2023-05-20T01:07:26;97408.25;;;16.39;100.00
8061;BME280;4073;42.626;25.386;2023-05-20T01:09:51;97408.75;;;16.41;100.00
8061;BME280;4073;42.626;25.386;2023-05-20T01:12:28;97399.06;;;16.40;100.00
8061;BME280;4073;42.626;25.386;2023-05-20T01:14:57;97384.91;;;16.34;100.00
8061;BME280;4073;42.626;25.386;2023-05-20T01:17:30;97393.28;;;16.33;100.00
8061;BME280;4073;42.626;25.386;2023-05-20T01:19:58;97385.50;;;16.31;100.00
8061;BME280;4073;42.626;25.386;2023-05-20T01:22:28;97380.19;;;16.26;100.00
8061;BME280;4073;42.626;25.386;2023-05-20T01:24:54;97367.31;;;16.23;100.00
8061;BME280;4073;42.626;25.386;2023-05-20T01:27:21;97366.63;;;16.18;100.00
8061;BME280;4073;42.626;25.386;2023-05-20T01:29:48;97373.59;;;16.19;100.00
8061;BME280;4073;42.626;25.386;2023-05-20T01:32:58;97353.72;;;16.15;100.00
8061;BME280;4073;42.626;25.386;2023-05-20T01:35:26;97362.50;;;16.20;100.00
8061;BME280;4073;42.626;25.386;2023-05-20T01:37:53;97351.63;;;16.25;100.00
8061;BME280;4073;42.626;25.386;2023-05-20T01:40:20;97352.44;;;16.26;100.00
8061;BME280;4073;42.626;25.386;2023-05-20T01:42:46;97340.75;;;16.17;100.00
8061;BME280;4073;42.626;25.386;2023-05-20T01:45:17;97349.03;;;16.20;100.00
8061;BME280;4073;42.626;25.386;2023-05-20T01:47:44;97355.13;;;16.26;100.00
8061;BME280;4073;42.626;25.386;2023-05-20T01:50:10;97361.50;;;16.30;100.00
8061;BME280;4073;42.626;25.386;2023-05-20T01:52:35;97366.53;;;16.23;100.00
8061;BME280;4073;42.626;25.386;2023-05-20T01:55:01;97331.63;;;16.26;100.00
8061;BME280;4073;42.626;25.386;2023-05-20T01:57:26;97355.13;;;16.26;100.00
8061;BME280;4073;42.626;25.386;2023-05-20T01:59:51;97352.19;;;16.36;100.00
8061;BME280;4073;42.626;25.386;2023-05-20T02:02:17;97335.22;;;16.35;100.00
8061;BME280;4073;42.626;25.386;2023-05-20T02:04:44;97342.63;;;16.43;100.00
8061;BME280;4073;42.626;25.386;2023-05-20T02:07:16;97328.94;;;16.26;100.00
8061;BME280;4073;42.626;25.386;2023-05-20T02:09:43;97348.63;;;16.27;100.00
8061;BME280;4073;42.626;25.386;2023-05-20T02:12:09;97351.59;;;16.39;100.00
8061;BME280;4073;42.626;25.386;2023-05-20T02:14:40;97361.50;;;16.43;100.00
8061;BME280;4073;42.626;25.386;2023-05-20T02:17:06;97345.59;;;16.42;100.00
8061;BME280;4073;42.626;25.386;2023-05-20T02:19:31;97352.81;;;16.46;100.00
8061;BME280;4073;42.626;25.386;2023-05-20T02:21:57;97365.09;;;16.52;100.00
8061;BME280;4073;42.626;25.386;2023-05-20T02:24:22;97363.28;;;16.48;100.00
8061;BME280;4073;42.626;25.386;2023-05-20T02:26:47;97357.47;;;16.41;100.00
8061;BME280;4073;42.626;25.386;2023-05-20T02:29:15;97358.41;;;16.36;100.00
8061;BME280;4073;42.626;25.386;2023-05-20T02:31:41;97368.19;;;16.32;100.00
8061;BME280;4073;42.626;25.386;2023-05-20T02:34:06;97369.31;;;16.31;100.00
8061;BME280;4073;42.626;25.386;2023-05-20T02:36:32;97352.63;;;16.29;100.00
8061;BME280;4073;42.626;25.386;2023-05-20T02:38:57;97366.31;;;16.19;100.00
8061;BME280;4073;42.626;25.386;2023-05-20T02:41:25;97354.84;;;16.14;100.00
8061;BME280;4073;42.626;25.386;2023-05-20T02:43:50;97362.81;;;16.19;100.00
8061;BME280;4073;42.626;25.386;2023-05-20T02:46:16;97354.34;;;16.12;100.00
8061;BME280;4073;42.626;25.386;2023-05-20T02:48:44;97343.84;;;16.10;100.00
8061;BME280;4073;42.626;25.386;2023-05-20T02:51:09;97358.75;;;16.08;100.00
8061;BME280;4073;42.626;25.386;2023-05-20T02:53:35;97358.75;;;16.08;100.00
8061;BME280;4073;42.626;25.386;2023-05-20T02:56:02;97351.25;;;16.05;100.00
8061;BME280;4073;42.626;25.386;2023-05-20T02:58:28;97352.47;;;15.99;100.00
8061;BME280;4073;42.626;25.386;2023-05-20T03:00:54;97336.50;;;15.89;100.00
8061;BME280;4073;42.626;25.386;2023-05-20T03:03:23;97354.66;;;15.97;100.00
8061;BME280;4073;42.626;25.386;2023-05-20T03:05:49;97347.88;;;15.99;100.00
8061;BME280;4073;42.626;25.386;2023-05-20T03:08:17;97340.88;;;15.98;100.00
8061;BME280;4073;42.626;25.386;2023-05-20T03:10:42;97341.47;;;15.95;100.00
8061;BME280;4073;42.626;25.386;2023-05-20T03:13:08;97325.50;;;15.99;100.00
8061;BME280;4073;42.626;25.386;2023-05-20T03:15:38;97330.28;;;16.02;100.00
8061;BME280;4073;42.626;25.386;2023-05-20T03:18:04;97337.00;;;16.04;100.00
8061;BME280;4073;42.626;25.386;2023-05-20T03:20:30;97341.38;;;16.00;100.00
8061;BME280;4073;42.626;25.386;2023-05-20T03:23:03;97337.59;;;16.01;100.00
8061;BME280;4073;42.626;25.386;2023-05-20T03:25:29;97349.66;;;16.04;100.00
8061;BME280;4073;42.626;25.386;2023-05-20T03:27:55;97352.88;;;16.06;100.00
8061;BME280;4073;42.626;25.386;2023-05-20T03:30:20;97360.16;;;16.05;100.00
8061;BME280;4073;42.626;25.386;2023-05-20T03:32:46;97355.66;;;16.14;100.00
8061;BME280;4073;42.626;25.386;2023-05-20T03:35:11;97364.94;;;16.08;100.00
8061;BME280;4073;42.626;25.386;2023-05-20T03:37:37;97356.44;;;16.15;100.00
8061;BME280;4073;42.626;25.386;2023-05-20T03:40:04;97354.13;;;16.22;100.00
8061;BME280;4073;42.626;25.386;2023-05-20T03:42:31;97372.00;;;16.31;100.00
8061;BME280;4073;42.626;25.386;2023-05-20T03:44:57;97368.72;;;16.34;100.00
8061;BME280;4073;42.626;25.386;2023-05-20T03:47:24;97359.59;;;16.44;100.00
8061;BME280;4073;42.626;25.386;2023-05-20T03:49:50;97359.84;;;16.56;100.00
8061;BME280;4073;42.626;25.386;2023-05-20T03:52:15;97355.94;;;16.62;100.00
8061;BME280;4073;42.626;25.386;2023-05-20T03:54:40;97355.94;;;16.62;100.00
8061;BME280;4073;42.626;25.386;2023-05-20T03:57:06;97362.94;;;16.63;100.00
8061;BME280;4073;42.626;25.386;2023-05-20T03:59:32;97365.03;;;16.66;100.00
8061;BME280;4073;42.626;25.386;2023-05-20T04:01:57;97369.22;;;16.72;100.00
8061;BME280;4073;42.626;25.386;2023-05-20T04:04:23;97385.72;;;16.70;100.00
8061;BME280;4073;42.626;25.386;2023-05-20T04:06:48;97388.31;;;16.75;100.00
8061;BME280;4073;42.626;25.386;2023-05-20T04:09:13;97389.59;;;16.78;100.00
8061;BME280;4073;42.626;25.386;2023-05-20T04:11:39;97390.88;;;16.80;100.00
8061;BME280;4073;42.626;25.386;2023-05-20T04:14:05;97396.66;;;16.87;100.00
8061;BME280;4073;42.626;25.386;2023-05-20T04:16:30;97403.59;;;17.02;100.00
8061;BME280;4073;42.626;25.386;2023-05-20T04:18:56;97398.69;;;17.04;100.00
8061;BME280;4073;42.626;25.386;2023-05-20T04:21:23;97402.38;;;17.08;100.00
8061;BME280;4073;42.626;25.386;2023-05-20T04:23:48;97390.22;;;17.19;100.00
8061;BME280;4073;42.626;25.386;2023-05-20T04:26:14;97402.31;;;17.21;100.00
8061;BME280;4073;42.626;25.386;2023-05-20T04:28:39;97397.75;;;17.30;100.00
8061;BME280;4073;42.626;25.386;2023-05-20T04:31:06;97406.97;;;17.29;100.00
8061;BME280;4073;42.626;25.386;2023-05-20T04:33:32;97413.84;;;17.35;100.00
8061;BME280;4073;42.626;25.386;2023-05-20T04:36:02;97409.91;;;17.41;100.00
8061;BME280;4073;42.626;25.386;2023-05-20T04:38:29;97422.38;;;17.51;100.00
8061;BME280;4073;42.626;25.386;2023-05-20T04:40:59;97415.13;;;17.60;100.00
8061;BME280;4073;42.626;25.386;2023-05-20T04:43:25;97425.13;;;17.59;100.00
8061;BME280;4073;42.626;25.386;2023-05-20T04:45:54;97418.13;;;17.58;100.00
8061;BME280;4073;42.626;25.386;2023-05-20T04:48:20;97425.69;;;17.48;100.00
8061;BME280;4073;42.626;25.386;2023-05-20T04:50:47;97415.22;;;17.46;100.00
8061;BME280;4073;42.626;25.386;2023-05-20T04:53:20;97432.13;;;17.38;100.00
8061;BME280;4073;42.626;25.386;2023-05-20T04:55:48;97417.16;;;17.32;100.00
8061;BME280;4073;42.626;25.386;2023-05-20T04:58:14;97423.34;;;17.33;100.00
8061;BME280;4073;42.626;25.386;2023-05-20T05:00:42;97424.63;;;17.35;100.00
8061;BME280;4073;42.626;25.386;2023-05-20T05:03:08;97430.25;;;17.39;99.35
8061;BME280;4073;42.626;25.386;2023-05-20T05:05:34;97424.72;;;17.44;100.00
8061;BME280;4073;42.626;25.386;2023-05-20T05:08:02;97402.63;;;17.42;100.00
8061;BME280;4073;42.626;25.386;2023-05-20T05:10:28;97419.97;;;17.49;99.16
8061;BME280;4073;42.626;25.386;2023-05-20T05:12:54;97427.63;;;17.47;100.00
8061;BME280;4073;42.626;25.386;2023-05-20T05:15:19;97430.63;;;17.46;100.00
8061;BME280;4073;42.626;25.386;2023-05-20T05:17:44;97424.16;;;17.55;99.79
8061;BME280;4073;42.626;25.386;2023-05-20T05:20:10;97420.22;;;17.61;99.82
8061;BME280;4073;42.626;25.386;2023-05-20T05:22:35;97419.47;;;17.69;100.00
8061;BME280;4073;42.626;25.386;2023-05-20T05:25:03;97416.31;;;17.76;100.00
8061;BME280;4073;42.626;25.386;2023-05-20T05:27:29;97418.41;;;17.79;99.69
8061;BME280;4073;42.626;25.386;2023-05-20T05:29:54;97431.63;;;17.80;99.35
8061;BME280;4073;42.626;25.386;2023-05-20T05:32:19;97420.31;;;17.78;100.00
8061;BME280;4073;42.626;25.386;2023-05-20T05:34:45;97416.44;;;17.71;100.00
8061;BME280;4073;42.626;25.386;2023-05-20T05:37:10;97436.75;;;17.90;100.00
8061;BME280;4073;42.626;25.386;2023-05-20T05:39:36;97448.72;;;17.98;97.33
8061;BME280;4073;42.626;25.386;2023-05-20T05:42:02;97441.75;;;18.06;100.00
8061;BME280;4073;42.626;25.386;2023-05-20T05:44:28;97437.31;;;18.18;100.00
8061;BME280;4073;42.626;25.386;2023-05-20T05:46:53;97441.34;;;18.29;100.00
8061;BME280;4073;42.626;25.386;2023-05-20T05:49:19;97435.34;;;18.41;95.68
8061;BME280;4073;42.626;25.386;2023-05-20T05:51:44;97434.72;;;18.44;98.00
8061;BME280;4073;42.626;25.386;2023-05-20T05:54:10;97446.38;;;18.53;98.74
8061;BME280;4073;42.626;25.386;2023-05-20T05:56:35;97444.81;;;18.60;96.44
8061;BME280;4073;42.626;25.386;2023-05-20T05:59:00;97452.44;;;18.67;95.87
8061;BME280;4073;42.626;25.386;2023-05-20T06:01:26;97449.91;;;18.70;96.95
8061;BME280;4073;42.626;25.386;2023-05-20T06:03:51;97448.50;;;18.81;97.61
8061;BME280;4073;42.626;25.386;2023-05-20T06:06:17;97446.88;;;18.89;96.74
8061;BME280;4073;42.626;25.386;2023-05-20T06:08:42;97447.69;;;18.98;95.41
8061;BME280;4073;42.626;25.386;2023-05-20T06:11:08;97464.13;;;19.18;92.23
8061;BME280;4073;42.626;25.386;2023-05-20T06:13:34;97483.75;;;19.15;94.28
8061;BME280;4073;42.626;25.386;2023-05-20T06:16:00;97483.75;;;19.15;95.05
8061;BME280;4073;42.626;25.386;2023-05-20T06:18:25;97488.66;;;19.05;95.55
8061;BME280;4073;42.626;25.386;2023-05-20T06:20:55;97491.84;;;18.98;94.71
8061;BME280;4073;42.626;25.386;2023-05-20T06:23:21;97495.34;;;18.90;97.36
8061;BME280;4073;42.626;25.386;2023-05-20T06:25:47;97485.63;;;18.81;97.92
8061;BME280;4073;42.626;25.386;2023-05-20T06:28:13;97487.69;;;18.84;96.31
8061;BME280;4073;42.626;25.386;2023-05-20T06:30:39;97478.59;;;18.71;96.58
8061;BME280;4073;42.626;25.386;2023-05-20T06:33:05;97490.91;;;18.86;97.18
8061;BME280;4073;42.626;25.386;2023-05-20T06:35:31;97489.78;;;19.12;94.71
8061;BME280;4073;42.626;25.386;2023-05-20T06:37:59;97477.50;;;19.66;91.32
8061;BME280;4073;42.626;25.386;2023-05-20T06:40:26;97463.34;;;20.15;88.61
8061;BME280;4073;42.626;25.386;2023-05-20T06:42:51;97467.72;;;20.66;87.32
8061;BME280;4073;42.626;25.386;2023-05-20T06:45:17;97467.94;;;21.10;84.25
8061;BME280;4073;42.626;25.386;2023-05-20T06:47:43;97456.56;;;21.08;82.64
8061;BME280;4073;42.626;25.386;2023-05-20T06:50:09;97463.75;;;21.13;81.92
8061;BME280;4073;42.626;25.386;2023-05-20T06:52:35;97472.81;;;21.37;82.66
8061;BME280;4073;42.626;25.386;2023-05-20T06:55:00;97472.44;;;21.59;81.44
8061;BME280;4073;42.626;25.386;2023-05-20T06:57:26;97480.50;;;21.56;80.96
8061;BME280;4073;42.626;25.386;2023-05-20T06:59:51;97475.56;;;21.49;79.76
8061;BME280;4073;42.626;25.386;2023-05-20T07:02:17;97479.38;;;21.36;80.90
8061;BME280;4073;42.626;25.386;2023-05-20T07:04:42;97476.25;;;21.05;82.60
8061;BME280;4073;42.626;25.386;2023-05-20T07:07:08;97470.09;;;20.67;83.94
8061;BME280;4073;42.626;25.386;2023-05-20T07:09:33;97469.66;;;20.57;85.01
8061;BME280;4073;42.626;25.386;2023-05-20T07:11:58;97468.47;;;20.75;85.20
8061;BME280;4073;42.626;25.386;2023-05-20T07:14:24;97476.66;;;20.66;84.35
8061;BME280;4073;42.626;25.386;2023-05-20T07:16:50;97475.88;;;20.66;86.50
8061;BME280;4073;42.626;25.386;2023-05-20T07:19:15;97478.09;;;20.93;85.45
8061;BME280;4073;42.626;25.386;2023-05-20T07:21:41;97485.69;;;21.28;85.17
8061;BME280;4073;42.626;25.386;2023-05-20T07:24:06;97486.34;;;21.46;79.92
8061;BME280;4073;42.626;25.386;2023-05-20T07:26:32;97482.53;;;21.91;78.36
8061;BME280;4073;42.626;25.386;2023-05-20T07:29:01;97489.06;;;22.23;77.68
8061;BME280;4073;42.626;25.386;2023-05-20T07:31:26;97494.53;;;22.47;75.70
8061;BME280;4073;42.626;25.386;2023-05-20T07:33:51;97510.41;;;22.21;75.37
8061;BME280;4073;42.626;25.386;2023-05-20T07:36:17;97502.72;;;21.90;76.13
8061;BME280;4073;42.626;25.386;2023-05-20T07:38:42;97511.81;;;21.41;77.90
8061;BME280;4073;42.626;25.386;2023-05-20T07:41:08;97502.53;;;20.93;81.47
8061;BME280;4073;42.626;25.386;2023-05-20T07:43:33;97503.19;;;20.69;84.23
8061;BME280;4073;42.626;25.386;2023-05-20T07:45:58;97503.19;;;20.69;85.05
8061;BME280;4073;42.626;25.386;2023-05-20T07:48:24;97518.53;;;20.65;85.92
8061;BME280;4073;42.626;25.386;2023-05-20T07:50:49;97502.91;;;20.54;86.56
8061;BME280;4073;42.626;25.386;2023-05-20T07:53:15;97507.13;;;20.42;86.66
8061;BME280;4073;42.626;25.386;2023-05-20T07:55:40;97501.94;;;20.29;87.16
8061;BME280;4073;42.626;25.386;2023-05-20T07:58:06;97507.44;;;20.12;87.97
8061;BME280;4073;42.626;25.386;2023-05-20T08:00:31;97500.22;;;20.07;87.27
8061;BME280;4073;42.626;25.386;2023-05-20T08:02:56;97495.66;;;20.37;86.58
8061;BME280;4073;42.626;25.386;2023-05-20T08:05:22;97498.44;;;20.87;86.12
8061;BME280;4073;42.626;25.386;2023-05-20T08:07:47;97503.06;;;21.36;83.28
8061;BME280;4073;42.626;25.386;2023-05-20T08:10:13;97504.06;;;21.31;80.32
8061;BME280;4073;42.626;25.386;2023-05-20T08:12:38;97502.53;;;21.01;82.33
8061;BME280;4073;42.626;25.386;2023-05-20T08:15:04;97510.28;;;20.82;83.01
8061;BME280;4073;42.626;25.386;2023-05-20T08:17:31;97519.84;;;20.88;84.33
8061;BME280;4073;42.626;25.386;2023-05-20T08:19:57;97519.03;;;20.88;82.48
8061;BME280;4073;42.626;25.386;2023-05-20T08:22:22;97517.31;;;20.83;83.39
8061;BME280;4073;42.626;25.386;2023-05-20T08:24:48;97509.53;;;21.02;82.80
8061;BME280;4073;42.626;25.386;2023-05-20T08:27:13;97523.00;;;21.19;81.87
8061;BME280;4073;42.626;25.386;2023-05-20T08:29:39;97524.00;;;21.15;79.96
8061;BME280;4073;42.626;25.386;2023-05-20T08:32:04;97512.16;;;20.90;80.64
8061;BME280;4073;42.626;25.386;2023-05-20T08:34:30;97516.31;;;20.88;82.76
8061;BME280;4073;42.626;25.386;2023-05-20T08:36:55;97525.41;;;20.63;79.50
8061;BME280;4073;42.626;25.386;2023-05-20T08:39:22;97529.09;;;20.58;78.58
8061;BME280;4073;42.626;25.386;2023-05-20T08:41:47;97518.34;;;20.32;75.85
8061;BME280;4073;42.626;25.386;2023-05-20T08:44:13;97517.22;;;20.42;77.78
8061;BME280;4073;42.626;25.386;2023-05-20T08:46:39;97501.56;;;20.39;76.57
8061;BME280;4073;42.626;25.386;2023-05-20T08:49:05;97518.16;;;20.46;78.51
8061;BME280;4073;42.626;25.386;2023-05-20T08:51:32;97514.13;;;20.52;78.10
8061;BME280;4073;42.626;25.386;2023-05-20T08:54:01;97521.38;;;20.31;80.11
8061;BME280;4073;42.626;25.386;2023-05-20T08:56:27;97509.56;;;20.35;82.25
8061;BME280;4073;42.626;25.386;2023-05-20T08:58:52;97508.97;;;20.21;79.12
8061;BME280;4073;42.626;25.386;2023-05-20T09:01:21;97499.38;;;20.24;80.53
8061;BME280;4073;42.626;25.386;2023-05-20T09:03:47;97499.69;;;20.31;81.71
8061;BME280;4073;42.626;25.386;2023-05-20T09:06:15;97495.41;;;20.21;82.64
8061;BME280;4073;42.626;25.386;2023-05-20T09:08:41;97485.53;;;20.08;84.88
8061;BME280;4073;42.626;25.386;2023-05-20T09:11:09;97501.38;;;19.98;85.65
8061;BME280;4073;42.626;25.386;2023-05-20T09:13:34;97487.31;;;19.96;85.25
8061;BME280;4073;42.626;25.386;2023-05-20T09:16:00;97484.97;;;19.77;84.10
8061;BME280;4073;42.626;25.386;2023-05-20T09:18:26;97475.72;;;19.70;86.02
8061;BME280;4073;42.626;25.386;2023-05-20T09:20:51;97484.16;;;19.77;85.86
8061;BME280;4073;42.626;25.386;2023-05-20T09:23:18;97485.91;;;19.81;87.17
8061;BME280;4073;42.626;25.386;2023-05-20T09:25:49;97485.44;;;19.88;84.38
8061;BME280;4073;42.626;25.386;2023-05-20T09:28:22;97487.69;;;19.77;84.35
8061;BME280;4073;42.626;25.386;2023-05-20T09:30:56;97491.03;;;19.74;84.76
8061;BME280;4073;42.626;25.386;2023-05-20T09:33:26;97489.16;;;19.66;83.59
8061;BME280;4073;42.626;25.386;2023-05-20T09:35:52;97484.53;;;19.50;81.73
8061;BME280;4073;42.626;25.386;2023-05-20T09:38:24;97491.25;;;19.44;80.97
8061;BME280;4073;42.626;25.386;2023-05-20T09:40:50;97479.28;;;19.45;80.56
8061;BME280;4073;42.626;25.386;2023-05-20T09:43:15;97462.84;;;19.24;80.44
8061;BME280;4073;42.626;25.386;2023-05-20T09:45:42;97475.78;;;19.27;80.86
8061;BME280;4073;42.626;25.386;2023-05-20T09:48:08;97486.31;;;19.29;80.06
8061;BME280;4073;42.626;25.386;2023-05-20T09:50:36;97476.09;;;19.34;81.52
8061;BME280;4073;42.626;25.386;2023-05-20T09:53:02;97469.06;;;19.42;81.78
8061;BME280;4073;42.626;25.386;2023-05-20T09:55:28;97463.66;;;19.50;80.09
8061;BME280;4073;42.626;25.386;2023-05-20T09:57:55;97460.78;;;19.55;83.42
8061;BME280;4073;42.626;25.386;2023-05-20T10:00:20;97458.53;;;19.49;86.58
8061;BME280;4073;42.626;25.386;2023-05-20T10:02:50;97444.19;;;19.40;89.53
8061;BME280;4073;42.626;25.386;2023-05-20T10:20:58;97432.25;;;18.73;93.32
8061;BME280;4073;42.626;25.386;2023-05-20T10:23:28;97427.91;;;18.72;92.92
8061;BME280;4073;42.626;25.386;2023-05-20T10:25:55;97431.59;;;18.67;93.46
8061;BME280;4073;42.626;25.386;2023-05-20T10:28:34;97434.94;;;18.73;93.78
8061;BME280;4073;42.626;25.386;2023-05-20T10:31:00;97437.97;;;18.80;93.62
8061;BME280;4073;42.626;25.386;2023-05-20T10:33:27;97436.53;;;18.82;92.88
8061;BME280;4073;42.626;25.386;2023-05-20T10:35:56;97426.03;;;18.81;93.69
8061;BME280;4073;42.626;25.386;2023-05-20T10:38:22;97418.84;;;18.85;93.90
8061;BME280;4073;42.626;25.386;2023-05-20T10:40:47;97424.75;;;18.87;91.12
8061;BME280;4073;42.626;25.386;2023-05-20T10:43:15;97431.94;;;18.91;90.76
8061;BME280;4073;42.626;25.386;2023-05-20T10:45:52;97421.25;;;18.86;93.64
8061;BME280;4073;42.626;25.386;2023-05-20T10:48:31;97417.09;;;18.89;95.37
8061;BME280;4073;42.626;25.386;2023-05-20T10:51:01;97418.22;;;18.96;95.78
8061;BME280;4073;42.626;25.386;2023-05-20T10:53:40;97416.78;;;18.99;92.16
8061;BME280;4073;42.626;25.386;2023-05-20T10:56:16;97412.00;;;18.96;91.31
8061;BME280;4073;42.626;25.386;2023-05-20T10:58:42;97422.50;;;18.97;92.74
8061;BME280;4073;42.626;25.386;2023-05-20T11:01:09;97403.72;;;18.92;94.38
8061;BME280;4073;42.626;25.386;2023-05-20T11:03:35;97420.13;;;19.04;90.30
8061;BME280;4073;42.626;25.386;2023-05-20T11:06:01;97421.41;;;19.07;91.94
8061;BME280;4073;42.626;25.386;2023-05-20T11:08:28;97422.50;;;19.14;92.14
8061;BME280;4073;42.626;25.386;2023-05-20T11:10:56;97421.88;;;19.17;90.38
8061;BME280;4073;42.626;25.386;2023-05-20T11:13:22;97423.63;;;19.22;90.07
8061;BME280;4073;42.626;25.386;2023-05-20T11:15:48;97422.19;;;19.33;88.69
8061;BME280;4073;42.626;25.386;2023-05-20T11:18:13;97416.63;;;19.38;90.17
8061;BME280;4073;42.626;25.386;2023-05-20T11:20:39;97408.16;;;19.39;92.65
8061;BME280;4073;42.626;25.386;2023-05-20T11:23:05;97421.38;;;19.58;90.15
8061;BME280;4073;42.626;25.386;2023-05-20T11:25:36;97407.00;;;19.57;90.33
8061;BME280;4073;42.626;25.386;2023-05-20T11:28:02;97413.66;;;19.68;88.37
8061;BME280;4073;42.626;25.386;2023-05-20T11:30:28;97421.44;;;19.78;87.68
8061;BME280;4073;42.626;25.386;2023-05-20T11:33:02;97416.81;;;19.79;86.90
8061;BME280;4073;42.626;25.386;2023-05-20T11:35:31;97419.50;;;19.87;81.76
8061;BME280;4073;42.626;25.386;2023-05-20T11:38:04;97421.41;;;19.87;82.53
8061;BME280;4073;42.626;25.386;2023-05-20T11:40:31;97412.63;;;19.90;82.47
8061;BME280;4073;42.626;25.386;2023-05-20T11:43:01;97422.72;;;19.89;78.32
8061;BME280;4073;42.626;25.386;2023-05-20T11:45:40;97418.53;;;19.92;79.64
8061;BME280;4073;42.626;25.386;2023-05-20T11:48:06;97412.91;;;19.97;76.04
8061;BME280;4073;42.626;25.386;2023-05-20T11:50:40;97413.72;;;19.97;77.48
8061;BME280;4073;42.626;25.386;2023-05-20T11:53:07;97409.75;;;19.95;77.18
8061;BME280;4073;42.626;25.386;2023-05-20T11:55:42;97408.97;;;19.86;75.37
8061;BME280;4073;42.626;25.386;2023-05-20T11:58:08;97399.38;;;19.88;74.63
8061;BME280;4073;42.626;25.386;2023-05-20T12:00:34;97382.50;;;19.83;75.44
8061;BME280;4073;42.626;25.386;2023-05-20T12:02:59;97394.28;;;19.87;76.57
8061;BME280;4073;42.626;25.386;2023-05-20T12:05:25;97390.59;;;19.91;75.49
8061;BME280;4073;42.626;25.386;2023-05-20T12:07:50;97386.16;;;19.87;77.13
8061;BME280;4073;42.626;25.386;2023-05-20T12:10:15;97387.88;;;19.91;74.74
8061;BME280;4073;42.626;25.386;2023-05-20T12:12:42;97388.53;;;19.88;75.16
8061;BME280;4073;42.626;25.386;2023-05-20T12:15:09;97385.78;;;19.97;75.10
8061;BME280;4073;42.626;25.386;2023-05-20T12:17:51;97385.63;;;20.02;76.81
8061;BME280;4073;42.626;25.386;2023-05-20T12:20:20;97378.53;;;20.09;75.24
8061;BME280;4073;42.626;25.386;2023-05-20T12:22:46;97381.22;;;20.18;76.45
8061;BME280;4073;42.626;25.386;2023-05-20T12:25:13;97375.63;;;20.23;77.15
8061;BME280;4073;42.626;25.386;2023-05-20T12:27:42;97372.72;;;20.28;75.70
8061;BME280;4073;42.626;25.386;2023-05-20T12:30:14;97369.16;;;20.36;77.74
8061;BME280;4073;42.626;25.386;2023-05-20T12:32:40;97369.88;;;20.45;76.82
8061;BME280;4073;42.626;25.386;2023-05-20T12:35:06;97369.50;;;20.55;77.29
8061;BME280;4073;42.626;25.386;2023-05-20T12:37:31;97366.06;;;20.67;77.72
8061;BME280;4073;42.626;25.386;2023-05-20T12:39:57;97355.53;;;20.86;78.27
8061;BME280;4073;42.626;25.386;2023-05-20T12:42:23;97349.97;;;21.03;78.42
8061;BME280;4073;42.626;25.386;2023-05-20T12:44:48;97345.59;;;21.10;79.24
8061;BME280;4073;42.626;25.386;2023-05-20T12:47:14;97345.13;;;21.08;79.78
8061;BME280;4073;42.626;25.386;2023-05-20T12:49:39;97337.59;;;21.26;76.33
8061;BME280;4073;42.626;25.386;2023-05-20T12:52:05;97328.44;;;21.42;78.50
8061;BME280;4073;42.626;25.386;2023-05-20T12:54:30;97323.72;;;21.63;76.46
8061;BME280;4073;42.626;25.386;2023-05-20T12:56:57;97322.03;;;21.83;76.92
8061;BME280;4073;42.626;25.386;2023-05-20T12:59:22;97318.09;;;21.92;74.69
8061;BME280;4073;42.626;25.386;2023-05-20T13:01:48;97317.19;;;22.12;70.22
8061;BME280;4073;42.626;25.386;2023-05-20T13:04:13;97311.03;;;22.27;67.60
8061;BME280;4073;42.626;25.386;2023-05-20T13:06:39;97304.31;;;22.49;70.33
8061;BME280;4073;42.626;25.386;2023-05-20T13:09:06;97303.72;;;22.55;68.82
8061;BME280;4073;42.626;25.386;2023-05-20T13:11:32;97307.50;;;22.78;66.02
8061;BME280;4073;42.626;25.386;2023-05-20T13:13:57;97303.03;;;23.14;63.67
8061;BME280;4073;42.626;25.386;2023-05-20T13:16:23;97285.66;;;23.34;59.47
8061;BME280;4073;42.626;25.386;2023-05-20T13:18:49;97288.31;;;23.61;60.05
8061;BME280;4073;42.626;25.386;2023-05-20T13:21:15;97285.94;;;23.75;58.62